Time;durP1;ratioP1;P1;durP2;ratioP2;P2;SDS_P1;SDS_P2;PMS_P1;PMS_P2;Temp;Humidity;BMP_temperature;BMP_pressure;BME280_temperature;BME280_humidity;BME280_pressure;Samples;Min_cycle;Max_cycle;Signal;HPM_P1;HPM_P2
2023/07/06 00:00:55;;;;;;;9.65;7.22;;;;;;;19.75;77.99;100102.14;1744621;82;25437;-65
2023/07/06 00:03:23;;;;;;;9.10;7.25;;;;;;;19.71;78.27;100100.48;1744682;81;25674;-65
2023/07/06 00:05:50;;;;;;;10.98;7.12;;;;;;;19.69;78.08;100100.08;1744587;82;25532;-65
2023/07/06 00:08:16;;;;;;;9.23;7.78;;;;;;;19.69;78.39;100098.11;1744595;81;27474;-65
2023/07/06 00:10:46;;;;;;;10.43;7.40;;;;;;;19.70;78.92;100097.52;1744432;81;25587;-65
2023/07/06 00:13:13;;;;;;;9.70;7.85;;;;;;;19.68;78.42;100099.30;1744745;81;25450;-65
2023/07/06 00:15:42;;;;;;;8.95;7.70;;;;;;;19.65;78.52;100092.38;1744614;82;25194;-70
2023/07/06 00:18:10;;;;;;;10.30;7.53;;;;;;;19.64;78.55;100089.44;1744758;81;25462;-65
2023/07/06 00:20:37;;;;;;;9.50;7.30;;;;;;;19.62;79.36;100082.95;1744613;82;27439;-65
2023/07/06 00:23:11;;;;;;;11.95;7.83;;;;;;;19.58;79.17;100073.31;1744458;82;25763;-65
2023/07/06 00:25:41;;;;;;;7.90;6.97;;;;;;;19.58;79.07;100082.91;1744617;81;25596;-65
2023/07/06 00:28:08;;;;;;;13.48;7.53;;;;;;;19.60;79.70;100082.55;1744594;81;25613;-65
2023/07/06 00:33:15;;;;;;;12.55;7.72;;;;;;;19.60;79.35;100085.28;1744653;82;27523;-65
2023/07/06 00:35:42;;;;;;;13.15;7.95;;;;;;;19.61;79.65;100085.48;1744471;82;25540;-65
2023/07/06 00:38:14;;;;;;;10.30;7.90;;;;;;;19.60;80.30;100083.91;1744532;82;25538;-65
2023/07/06 00:40:46;;;;;;;9.40;7.33;;;;;;;19.54;79.64;100091.67;1744563;81;25514;-66
2023/07/06 00:43:17;;;;;;;9.75;7.80;;;;;;;19.55;79.96;100100.70;1744414;81;25622;-64
2023/07/06 00:45:47;;;;;;;12.15;7.47;;;;;;;19.53;79.76;100105.20;1744599;81;27509;-64
2023/07/06 00:48:26;;;;;;;7.87;7.03;;;;;;;19.49;79.75;100100.23;1744502;82;25450;-64
2023/07/06 00:51:02;;;;;;;14.30;7.85;;;;;;;19.45;80.17;100095.89;1744681;82;25425;-65
2023/07/06 00:53:34;;;;;;;12.10;7.70;;;;;;;19.44;80.62;100088.81;1744435;81;25397;-64
2023/07/06 00:56:02;;;;;;;8.93;7.85;;;;;;;19.41;80.56;100086.25;1744577;82;25395;-64
2023/07/06 00:58:37;;;;;;;11.65;8.13;;;;;;;19.39;80.72;100074.28;1744500;82;27545;-64
2023/07/06 01:01:07;;;;;;;10.00;8.03;;;;;;;19.41;81.31;100075.28;1743717;81;25558;-65
2023/07/06 01:03:46;;;;;;;10.65;7.83;;;;;;;19.38;81.30;100056.83;1744591;82;25389;-65
2023/07/06 01:06:19;;;;;;;9.83;6.92;;;;;;;19.37;81.56;100053.28;1744514;82;25831;-65
2023/07/06 01:08:52;;;;;;;11.10;7.28;;;;;;;19.37;81.57;100048.38;1744626;82;25562;-65
2023/07/06 01:11:22;;;;;;;10.08;8.20;;;;;;;19.38;81.51;100053.49;1744545;81;27681;-65
2023/07/06 01:13:52;;;;;;;9.48;7.12;;;;;;;19.39;81.57;100070.17;1744610;81;25925;-66
2023/07/06 01:16:33;;;;;;;10.70;7.30;;;;;;;19.39;81.70;100081.14;1744552;81;25409;-66
2023/07/06 01:19:27;;;;;;;11.78;7.47;;;;;;;19.35;81.84;100086.36;1744645;81;25476;-65
2023/07/06 01:21:59;;;;;;;12.23;7.47;;;;;;;19.31;81.51;100084.17;1744584;82;25551;-65
2023/07/06 01:24:59;;;;;;;9.98;8.05;;;;;;;19.24;81.52;100069.80;1741962;81;29637;-65
2023/07/06 01:27:57;;;;;;;11.95;8.05;;;;;;;19.19;81.72;100065.42;1744512;82;25564;-65
2023/07/06 01:30:48;;;;;;;10.27;7.33;;;;;;;19.17;82.36;100060.89;1744581;81;25452;-64
2023/07/06 01:33:23;;;;;;;10.38;8.03;;;;;;;19.15;81.97;100060.45;1744133;81;25642;-65
2023/07/06 01:35:56;;;;;;;13.13;8.15;;;;;;;19.16;82.58;100053.82;1744322;81;25563;-65
2023/07/06 01:38:23;;;;;;;11.75;8.15;;;;;;;19.16;82.49;100046.19;1744483;81;27444;-71
2023/07/06 01:40:51;;;;;;;9.80;7.95;;;;;;;19.15;82.21;100044.59;1744421;81;25683;-65
2023/07/06 01:43:20;;;;;;;15.43;8.43;;;;;;;19.17;82.41;100049.12;1744652;82;25441;-66
2023/07/06 01:45:48;;;;;;;;;;;;;;;19.20;82.93;100047.01;1747045;82;25505;-65
2023/07/06 01:48:16;;;;;;;11.88;8.60;;;;;;;19.20;83.08;100050.53;1711072;83;25186;-66
2023/07/06 01:50:57;;;;;;;11.25;8.60;;;;;;;19.20;82.81;100053.86;1711000;83;27570;-66
2023/07/06 01:53:55;;;;;;;12.33;8.55;;;;;;;19.19;82.70;100053.08;1678357;85;25786;-66
2023/07/06 01:56:39;;;;;;;10.93;8.65;;;;;;;19.19;83.04;100053.67;1710747;83;25553;-66
2023/07/06 01:59:11;;;;;;;14.05;9.20;;;;;;;19.17;82.57;100060.09;1742393;81;25679;-66
2023/07/06 02:01:45;;;;;;;9.63;8.60;;;;;;;19.16;82.35;100064.78;1744619;81;25397;-64
2023/07/06 02:04:34;;;;;;;14.20;8.23;;;;;;;19.14;82.72;100069.08;1744492;81;27489;-65
2023/07/06 02:07:05;;;;;;;11.03;7.95;;;;;;;19.13;82.76;100064.75;1633503;87;25599;-65
2023/07/06 02:09:34;;;;;;;14.07;8.85;;;;;;;19.09;82.63;100064.70;1634216;87;25723;-65
2023/07/06 02:12:00;;;;;;;11.75;9.53;;;;;;;19.08;82.73;100070.55;1618674;88;25674;-65
2023/07/06 02:14:27;;;;;;;10.90;8.50;;;;;;;19.06;82.84;100066.81;1636061;87;25687;-65
2023/07/06 02:16:54;;;;;;;13.32;9.03;;;;;;;19.02;82.91;100065.40;1619407;88;27499;-65
2023/07/06 02:19:21;;;;;;;10.40;8.58;;;;;;;19.00;82.79;100065.55;1621717;88;25526;-65
2023/07/06 02:21:51;;;;;;;14.98;9.68;;;;;;;18.97;82.60;100075.31;1636010;87;25467;-66
2023/07/06 02:24:20;;;;;;;12.40;9.05;;;;;;;18.95;82.50;100072.16;1619684;88;25536;-65
2023/07/06 02:26:48;;;;;;;9.95;8.53;;;;;;;18.92;82.72;100071.53;1622020;88;25432;-65
2023/07/06 02:29:16;;;;;;;9.68;8.65;;;;;;;18.90;82.56;100074.42;1636049;87;27462;-65
2023/07/06 02:31:46;;;;;;;10.55;8.85;;;;;;;18.87;82.59;100074.59;1654741;85;25891;-65
2023/07/06 02:34:13;;;;;;;10.93;8.95;;;;;;;18.85;82.82;100078.29;1670930;85;25434;-65
2023/07/06 02:36:39;;;;;;;14.10;9.45;;;;;;;18.81;82.88;100078.77;1670730;85;25502;-65
2023/07/06 02:39:05;;;;;;;11.95;9.18;;;;;;;18.78;82.90;100078.13;1670511;85;25479;-65
2023/07/06 02:41:31;;;;;;;12.28;9.18;;;;;;;18.74;82.62;100080.83;1670293;85;28095;-65
2023/07/06 02:43:59;;;;;;;12.18;8.85;;;;;;;18.74;82.70;100085.52;1670789;85;25390;-65
2023/07/06 02:46:25;;;;;;;13.95;9.38;;;;;;;18.71;83.12;100084.89;1670910;85;25515;-65
2023/07/06 02:48:52;;;;;;;13.55;10.00;;;;;;;18.66;83.29;100090.91;1670758;85;25548;-65
2023/07/06 02:51:18;;;;;;;13.95;10.58;;;;;;;18.64;83.57;100092.42;1670609;85;25499;-67
2023/07/06 02:53:45;;;;;;;11.63;8.93;;;;;;;18.59;83.80;100099.02;1670820;85;27555;-65
2023/07/06 02:56:11;;;;;;;17.77;14.25;;;;;;;18.55;83.92;100098.75;1670678;85;25423;-65
2023/07/06 02:58:37;;;;;;;11.88;10.15;;;;;;;18.51;83.83;100100.63;1671015;85;25497;-65
2023/07/06 03:01:04;;;;;;;14.53;10.85;;;;;;;18.47;84.40;100091.80;1666493;85;25552;-65
2023/07/06 03:03:30;;;;;;;15.38;11.00;;;;;;;18.46;84.45;100099.01;1666688;86;25465;-65
2023/07/06 03:05:56;;;;;;;17.07;12.43;;;;;;;18.44;85.06;100095.27;1666492;85;27525;-65
2023/07/06 03:08:22;;;;;;;16.27;11.15;;;;;;;18.40;85.22;100088.92;1683560;84;25466;-65
2023/07/06 03:10:48;;;;;;;14.28;11.08;;;;;;;18.39;85.56;100085.98;1688886;84;25432;-65
2023/07/06 03:13:15;;;;;;;14.65;10.58;;;;;;;18.41;86.10;100087.00;1690437;84;25538;-65
2023/07/06 03:15:43;;;;;;;11.97;10.75;;;;;;;18.40;85.80;100090.88;1668880;84;25433;-65
2023/07/06 03:18:10;;;;;;;12.47;10.18;;;;;;;18.42;86.23;100088.55;1690359;84;28114;-65
2023/07/06 03:20:36;;;;;;;15.68;12.15;;;;;;;18.42;85.96;100093.48;1688455;84;25432;-65
2023/07/06 03:23:04;;;;;;;12.15;10.30;;;;;;;18.44;85.86;100099.37;1690675;84;25496;-65
2023/07/06 03:25:30;;;;;;;15.65;11.78;;;;;;;18.46;85.88;100099.01;1689172;84;25502;-65
2023/07/06 03:27:56;;;;;;;14.10;11.38;;;;;;;18.47;86.15;100100.02;1690744;84;25401;-65
2023/07/06 03:30:28;;;;;;;13.72;10.58;;;;;;;18.48;86.37;100104.31;1690313;84;27496;-65
2023/07/06 03:32:58;;;;;;;14.40;10.65;;;;;;;18.50;86.30;100104.54;1668893;84;25498;-65
2023/07/06 03:35:24;;;;;;;13.78;10.93;;;;;;;18.49;86.24;100087.33;1689940;84;25417;-65
2023/07/06 03:37:53;;;;;;;13.08;10.82;;;;;;;18.48;86.26;100093.95;1690508;84;25992;-65
2023/07/06 03:40:20;;;;;;;12.93;10.58;;;;;;;18.47;86.23;100104.68;1687690;84;25485;-65
2023/07/06 03:42:47;;;;;;;13.43;11.10;;;;;;;18.49;86.73;100109.23;1690473;84;27539;-65
2023/07/06 03:45:16;;;;;;;13.78;11.30;;;;;;;18.51;86.71;100119.80;1689465;84;25563;-65
2023/07/06 03:47:45;;;;;;;13.28;11.15;;;;;;;18.50;87.06;100119.02;1690797;84;25484;-65
2023/07/06 03:50:14;;;;;;;15.15;11.15;;;;;;;18.54;86.99;100116.33;1690734;84;26017;-65
2023/07/06 03:52:41;;;;;;;;;;;;;;;18.55;87.07;100112.44;1693204;84;25445;-65
2023/07/06 03:55:16;;;;;;;14.60;11.28;;;;;;;18.59;87.51;100119.56;1690690;84;28158;-65
2023/07/06 03:57:45;;;;;;;12.13;10.53;;;;;;;18.62;87.77;100122.91;1690576;84;25366;-65
2023/07/06 04:00:19;;;;;;;18.32;13.75;;;;;;;18.63;87.21;100115.51;1690679;84;25459;-65
2023/07/06 04:02:42;;;;;;;14.75;12.28;;;;;;;18.66;87.76;100117.48;1690014;84;25626;-65
2023/07/06 04:05:08;;;;;;;14.93;11.43;;;;;;;18.72;88.04;100121.51;1689813;84;25389;-65
2023/07/06 04:07:35;;;;;;;14.20;10.85;;;;;;;18.78;88.00;100121.41;1668576;85;27505;-65
2023/07/06 04:10:01;;;;;;;17.80;14.53;;;;;;;18.86;88.09;100129.17;1668509;85;25673;-65
2023/07/06 04:12:32;;;;;;;15.43;11.22;;;;;;;18.93;88.21;100131.23;1668563;86;25430;-65
2023/07/06 04:14:57;;;;;;;12.98;10.95;;;;;;;18.95;87.73;100136.56;1668379;85;25555;-65
2023/07/06 04:17:23;;;;;;;13.62;10.53;;;;;;;18.96;87.64;100138.13;1668546;86;25518;-65
2023/07/06 04:19:53;;;;;;;11.95;10.45;;;;;;;19.00;88.16;100132.14;1668595;85;28089;-65
2023/07/06 04:22:18;;;;;;;14.83;11.18;;;;;;;19.04;88.08;100135.70;1668214;85;25660;-65
2023/07/06 04:24:44;;;;;;;12.23;10.98;;;;;;;19.09;88.06;100141.45;1668545;86;25485;-65
2023/07/06 04:27:10;;;;;;;15.93;10.85;;;;;;;19.15;88.30;100143.28;1668505;86;25651;-65
2023/07/06 04:29:37;;;;;;;13.18;11.33;;;;;;;19.22;88.28;100149.67;1668589;86;25471;-66
2023/07/06 04:32:05;;;;;;;12.07;10.20;;;;;;;19.26;88.04;100146.97;1668571;85;27515;-66
2023/07/06 04:34:31;;;;;;;14.87;13.25;;;;;;;19.30;87.97;100147.02;1668475;86;25465;-66
2023/07/06 04:36:57;;;;;;;12.90;10.80;;;;;;;19.36;87.93;100146.91;1668534;86;25502;-65
2023/07/06 04:39:23;;;;;;;12.07;9.98;;;;;;;19.40;87.73;100143.62;1668532;85;25524;-65
2023/07/06 04:41:49;;;;;;;15.28;9.80;;;;;;;19.44;87.78;100151.30;1668592;85;25411;-60
2023/07/06 04:44:18;;;;;;;12.05;9.00;;;;;;;19.47;87.46;100142.92;1668664;86;27500;-60
2023/07/06 04:46:44;;;;;;;11.70;9.25;;;;;;;19.52;87.73;100144.75;1668612;86;25480;-60
2023/07/06 04:49:10;;;;;;;13.40;8.85;;;;;;;19.58;87.70;100152.87;1668691;85;25431;-60
2023/07/06 04:51:37;;;;;;;12.07;9.38;;;;;;;19.65;87.49;100158.22;1668643;86;25558;-62
2023/07/06 04:54:04;;;;;;;14.80;9.20;;;;;;;19.70;87.63;100155.95;1668707;86;25420;-60
2023/07/06 04:56:30;;;;;;;11.33;7.95;;;;;;;19.77;87.50;100156.05;1668620;86;28077;-59
2023/07/06 04:58:56;;;;;;;10.38;8.05;;;;;;;19.81;86.78;100161.58;1668646;86;25417;-59
2023/07/06 05:01:24;;;;;;;8.18;7.03;;;;;;;19.85;86.70;100167.10;1668681;86;25451;-60
2023/07/06 05:03:52;;;;;;;10.23;7.08;;;;;;;19.91;86.52;100172.48;1668664;86;26066;-60
2023/07/06 05:06:19;;;;;;;11.12;7.17;;;;;;;19.93;86.04;100162.69;1668411;84;25501;-60
2023/07/06 05:08:47;;;;;;;8.58;6.75;;;;;;;19.99;85.75;100173.33;1650921;86;27479;-60
2023/07/06 05:11:13;;;;;;;8.88;6.45;;;;;;;20.05;86.12;100173.98;1668170;86;25516;-60
2023/07/06 05:13:39;;;;;;;11.22;7.00;;;;;;;20.14;86.32;100165.45;1668165;86;25571;-60
2023/07/06 05:16:05;;;;;;;10.80;6.35;;;;;;;20.23;85.77;100173.41;1668151;86;25553;-60
2023/07/06 05:18:32;;;;;;;8.55;6.83;;;;;;;20.25;84.83;100171.84;1668153;85;25568;-59
2023/07/06 05:20:58;;;;;;;12.25;6.78;;;;;;;20.31;84.86;100172.28;1668257;86;27499;-60
2023/07/06 05:23:28;;;;;;;11.10;6.20;;;;;;;20.37;84.74;100165.87;1668586;86;25401;-60
2023/07/06 05:25:57;;;;;;;10.90;6.80;;;;;;;20.44;84.70;100179.08;1669159;85;25410;-59
2023/07/06 05:28:23;;;;;;;10.30;6.08;;;;;;;20.50;84.46;100178.95;1669209;86;25488;-60
2023/07/06 05:30:50;;;;;;;12.15;6.22;;;;;;;20.59;84.45;100181.38;1668703;85;25501;-60
2023/07/06 05:33:17;;;;;;;8.13;5.60;;;;;;;20.67;83.48;100186.36;1668649;86;27535;-60
2023/07/06 05:35:43;;;;;;;9.83;5.72;;;;;;;20.69;83.30;100193.06;1668577;86;25487;-60
2023/07/06 05:38:10;;;;;;;7.65;5.62;;;;;;;20.75;82.71;100191.34;1668619;85;25490;-60
2023/07/06 05:40:40;;;;;;;9.58;6.47;;;;;;;20.75;82.17;100196.24;1668608;85;26023;-59
2023/07/06 05:43:06;;;;;;;;;;;;;;;20.75;81.85;100200.96;1671175;85;25398;-58
2023/07/06 05:45:33;;;;;;;8.98;5.60;;;;;;;20.78;81.87;100198.83;1668657;86;28129;-60
2023/07/06 05:47:59;;;;;;;10.38;5.90;;;;;;;20.80;81.72;100200.61;1668571;85;25536;-60
2023/07/06 05:50:25;;;;;;;10.90;6.60;;;;;;;20.85;81.59;100207.13;1668638;85;25428;-60
2023/07/06 05:52:52;;;;;;;11.70;6.22;;;;;;;20.89;81.62;100202.43;1668612;86;25533;-60
2023/07/06 05:55:18;;;;;;;10.43;6.50;;;;;;;20.96;81.30;100208.00;1649578;86;25434;-60
2023/07/06 05:57:46;;;;;;;8.80;6.60;;;;;;;21.02;81.20;100211.95;1668608;86;27511;-60
2023/07/06 06:00:15;;;;;;;9.00;7.05;;;;;;;21.13;81.05;100224.42;1668528;85;25422;-61
2023/07/06 06:02:44;;;;;;;10.00;7.12;;;;;;;21.26;81.09;100221.54;1668874;86;25409;-60
2023/07/06 06:05:16;;;;;;;10.53;6.15;;;;;;;21.39;80.27;100222.63;1668000;85;25598;-60
2023/07/06 06:07:43;;;;;;;9.15;6.30;;;;;;;21.51;79.84;100222.31;1685770;83;25472;-60
2023/07/06 06:10:11;;;;;;;9.93;6.90;;;;;;;21.66;79.70;100227.88;1666688;86;27407;-60
2023/07/06 06:12:38;;;;;;;7.27;6.03;;;;;;;21.78;79.03;100228.34;1685747;84;25424;-59
2023/07/06 06:15:08;;;;;;;13.28;7.45;;;;;;;21.93;78.63;100229.77;1690737;84;25459;-60
2023/07/06 06:17:34;;;;;;;7.70;6.28;;;;;;;22.05;78.17;100236.31;1690634;84;26144;-59
2023/07/06 06:20:00;;;;;;;11.40;7.22;;;;;;;22.19;78.05;100240.48;1690754;84;25429;-60
2023/07/06 06:22:26;;;;;;;9.63;6.60;;;;;;;22.33;77.22;100243.87;1690723;84;28158;-60
2023/07/06 06:24:53;;;;;;;12.35;7.03;;;;;;;22.42;76.37;100246.25;1690822;84;25549;-61
2023/07/06 06:27:19;;;;;;;11.15;6.60;;;;;;;22.48;75.75;100248.05;1691452;84;25451;-61
2023/07/06 06:29:46;;;;;;;8.38;6.90;;;;;;;22.52;75.50;100255.73;1691229;84;25816;-60
2023/07/06 06:32:14;;;;;;;9.58;7.15;;;;;;;22.56;74.83;100265.59;1691406;84;25479;-61
2023/07/06 06:34:41;;;;;;;9.93;6.75;;;;;;;22.64;74.81;100273.86;1690711;84;27652;-60
2023/07/06 06:37:09;;;;;;;10.13;6.65;;;;;;;22.76;74.90;100273.47;1690592;84;25708;-60
2023/07/06 06:39:36;;;;;;;11.00;7.47;;;;;;;22.98;74.99;100276.25;1690713;84;25487;-60
2023/07/06 06:42:04;;;;;;;7.97;6.97;;;;;;;23.18;74.88;100274.69;1690633;84;25539;-61
2023/07/06 06:44:30;;;;;;;15.75;7.50;;;;;;;23.35;74.08;100274.48;1690743;84;25467;-61
2023/07/06 06:47:00;;;;;;;10.55;7.30;;;;;;;23.46;73.46;100268.36;1690700;84;27421;-60
2023/07/06 06:49:26;;;;;;;;;;;;;;;23.53;72.43;100266.75;1693077;84;25671;-62
2023/07/06 06:51:52;;;;;;;14.20;7.47;;;;;;;23.60;71.93;100275.00;1690702;84;25441;-60
2023/07/06 06:54:19;;;;;;;11.97;7.62;;;;;;;23.67;71.59;100281.30;1690650;84;25422;-59
2023/07/06 06:56:45;;;;;;;12.28;7.80;;;;;;;23.70;71.19;100274.22;1690702;84;25469;-62
2023/07/06 06:59:12;;;;;;;11.73;7.95;;;;;;;23.76;70.39;100283.64;1690701;84;28110;-62
2023/07/06 07:01:40;;;;;;;9.98;7.55;;;;;;;23.74;69.40;100287.41;1690618;84;25481;-61
2023/07/06 07:04:09;;;;;;;12.67;7.43;;;;;;;23.83;70.56;100286.41;1690917;84;25426;-61
2023/07/06 07:06:36;;;;;;;20.95;8.33;;;;;;;24.05;70.67;100289.88;1690717;84;26131;-61
2023/07/06 07:09:03;;;;;;;11.60;8.33;;;;;;;24.38;70.37;100297.43;1690729;84;25086;-62
2023/07/06 07:11:30;;;;;;;13.55;7.58;;;;;;;24.65;70.27;100297.48;1680935;84;27193;-63
2023/07/06 07:13:57;;;;;;;14.15;7.92;;;;;;;25.00;69.87;100293.67;1690610;84;25617;-62
2023/07/06 07:16:23;;;;;;;14.07;8.10;;;;;;;25.33;69.48;100303.89;1690662;84;25412;-62
2023/07/06 07:18:50;;;;;;;9.20;6.95;;;;;;;25.53;68.10;100304.09;1668741;84;25531;-62
2023/07/06 07:21:19;;;;;;;11.95;8.78;;;;;;;25.57;66.51;100300.67;1690707;84;25483;-62
2023/07/06 07:23:48;;;;;;;9.48;6.85;;;;;;;25.59;66.28;100305.23;1690770;84;29625;-62
2023/07/06 07:26:21;;;;;;;12.05;7.42;;;;;;;25.68;65.22;100304.73;1690554;84;25433;-62
2023/07/06 07:28:48;;;;;;;14.75;9.80;;;;;;;25.62;64.69;100310.53;1690355;84;25482;-62
2023/07/06 07:31:17;;;;;;;10.48;8.25;;;;;;;25.51;64.12;100318.95;1690654;84;25494;-62
2023/07/06 07:33:46;;;;;;;9.48;6.83;;;;;;;25.44;64.02;100305.19;1690713;84;25396;-62
2023/07/06 07:36:18;;;;;;;10.23;7.60;;;;;;;25.61;63.84;100313.09;1690809;84;27434;-63
2023/07/06 07:38:46;;;;;;;10.82;6.58;;;;;;;25.81;64.36;100305.78;1669173;84;25460;-64
2023/07/06 07:41:18;;;;;;;10.03;8.63;;;;;;;26.02;63.51;100303.38;1690847;84;25489;-62
2023/07/06 07:43:47;;;;;;;8.15;6.25;;;;;;;26.08;62.83;100303.69;1671778;84;25551;-62
2023/07/06 07:46:16;;;;;;;8.63;6.47;;;;;;;26.28;62.47;100305.22;1690934;84;25466;-63
2023/07/06 07:48:46;;;;;;;10.32;6.70;;;;;;;26.57;62.41;100311.77;1671126;84;28063;-63
2023/07/06 07:51:23;;;;;;;10.48;6.85;;;;;;;26.80;61.61;100304.09;1690571;84;25409;-62
2023/07/06 07:53:53;;;;;;;10.85;5.92;;;;;;;26.81;60.58;100310.62;1666414;86;25506;-62
2023/07/06 07:56:21;;;;;;;8.80;6.05;;;;;;;26.72;59.69;100313.76;1666599;85;25477;-62
2023/07/06 07:58:48;;;;;;;7.70;6.10;;;;;;;26.62;59.08;100311.30;1671521;84;25441;-63
2023/07/06 08:01:19;;;;;;;6.95;6.00;;;;;;;26.73;59.26;100314.73;1690656;84;27475;-63
2023/07/06 08:03:46;;;;;;;8.78;5.85;;;;;;;26.97;59.51;100318.31;1664367;86;26779;-63
2023/07/06 08:06:19;;;;;;;7.12;6.10;;;;;;;27.39;59.48;100322.97;1664480;85;25445;-63
2023/07/06 08:08:47;;;;;;;7.35;6.20;;;;;;;27.83;58.74;100324.34;1664388;86;26034;-63
2023/07/06 08:11:20;;;;;;;7.42;5.22;;;;;;;28.11;57.43;100318.05;1684498;84;25463;-64
2023/07/06 08:13:50;;;;;;;8.68;5.30;;;;;;;28.42;56.22;100326.17;1690547;84;27547;-63
2023/07/06 08:16:15;;;;;;;6.30;5.55;;;;;;;28.63;55.45;100325.69;1690492;84;25686;-63
2023/07/06 08:18:41;;;;;;;7.12;5.50;;;;;;;28.98;54.82;100328.86;1690778;84;25474;-62
2023/07/06 08:21:08;;;;;;;8.48;5.70;;;;;;;29.34;53.50;100332.17;1690742;84;25965;-63
2023/07/06 08:23:37;;;;;;;8.08;5.35;;;;;;;29.28;51.58;100328.95;1690800;84;25403;-62
2023/07/06 08:26:04;;;;;;;;;;;;;;;29.26;51.98;100326.60;1693271;84;27708;-62
2023/07/06 08:28:33;;;;;;;9.98;4.53;;;;;;;29.28;50.38;100335.91;1690702;84;25426;-63
2023/07/06 08:31:03;;;;;;;5.58;4.67;;;;;;;29.31;50.18;100326.69;1690813;84;25490;-63
2023/07/06 08:33:35;;;;;;;6.08;4.70;;;;;;;29.49;49.40;100331.78;1690771;84;25536;-63
2023/07/06 08:36:01;;;;;;;7.50;4.97;;;;;;;29.64;48.10;100324.59;1680820;84;25303;-63
2023/07/06 08:38:27;;;;;;;6.65;4.10;;;;;;;29.89;48.39;100319.77;1690933;84;28039;-63
2023/07/06 08:40:54;;;;;;;63.25;59.30;;;;;;;30.28;47.47;100322.02;1690699;84;25491;-63
2023/07/06 08:43:23;;;;;;;;;;;;;;;30.66;46.29;100303.75;1693275;84;25477;-63
2023/07/06 08:45:53;;;;;;;61.18;57.80;;;;;;;;;;1690769;84;26091;-63
2023/07/06 08:48:25;;;;;;;59.15;55.78;;;;;;;;;;1690832;84;25334;-63
2023/07/06 08:51:01;;;;;;;58.42;55.43;;;;;;;;;;1690756;84;27355;-63
2023/07/06 08:53:32;;;;;;;41.00;38.33;;;;;;;;;;1690560;84;25387;-63
2023/07/06 08:57:17;;;;;;;75.47;70.93;;;;;;;31.77;41.22;100325.78;1868189;76;32275;-64
2023/07/06 08:59:48;;;;;;;64.82;60.78;;;;;;;;;;1824626;78;25413;-65
2023/07/06 09:02:22;;;;;;;61.42;57.85;;;;;;;;;;1821028;78;28140;-64
2023/07/06 09:04:52;;;;;;;65.25;61.48;;;;;;;;;;1783650;80;25543;-64
2023/07/06 09:07:24;;;;;;;63.02;59.15;;;;;;;;;;1784271;80;25333;-64
2023/07/06 09:09:54;;;;;;;62.25;58.75;;;;;;;;;;1792087;80;25341;-65
2023/07/06 09:12:26;;;;;;;63.85;60.43;;;;;;;;;;1792416;80;25521;-65
2023/07/06 09:14:53;;;;;;;9.88;9.10;;;;;;;;;;1784211;80;27491;-65
2023/07/06 09:17:21;;;;;;;6.17;3.60;;;;;;;;;;1784199;80;25665;-65
2023/07/06 09:19:51;;;;;;;4.90;3.17;;;;;;;;;;1792586;80;25359;-65
2023/07/06 09:22:22;;;;;;;7.37;3.50;;;;;;;;;;1792550;80;25495;-65
2023/07/06 09:24:51;;;;;;;64.07;60.75;;;;;;;;;;1792584;80;25500;-65
2023/07/06 09:27:26;;;;;;;61.33;57.95;;;;;;;;;;1792566;80;27378;-65
2023/07/06 09:30:05;;;;;;;61.05;57.50;;;;;;;;;;1792504;80;25297;-63
2023/07/06 09:32:34;;;;;;;11.03;10.05;;;;;;;;;;1784190;80;25342;-63
2023/07/06 09:35:06;;;;;;;5.50;3.37;;;;;;;;;;1784200;80;25455;-65
2023/07/06 09:37:33;;;;;;;6.30;3.60;;;;;;;;;;1782959;80;25045;-65
2023/07/06 09:42:55;;;;;;;60.52;57.05;;;;;;;;;;1760580;81;25516;-64
2023/07/06 09:45:26;;;;;;;4.53;3.80;;;;;;;;;;1760678;81;25621;-63
2023/07/06 09:48:01;;;;;;;10.08;3.52;;;;;;;;;;1760710;81;25220;-64
2023/07/06 09:50:38;;;;;;;7.35;3.67;;;;;;;;;;1760796;81;25386;-65
2023/07/06 09:53:11;;;;;;;5.65;3.65;;;;;;;;;;1758231;81;27338;-65
2023/07/06 09:55:39;;;;;;;7.15;3.17;;;;;;;;;;1760692;81;25512;-64
2023/07/06 09:58:10;;;;;;;8.45;3.10;;;;;;;;;;1760814;81;25374;-63
2023/07/06 10:00:40;;;;;;;3.85;2.90;;;;;;;;;;1760622;81;25566;-64
2023/07/06 10:03:29;;;;;;;7.62;3.37;;;;;;;;;;1760810;81;25420;-64
2023/07/06 10:06:19;;;;;;;9.05;3.12;;;;;;;;;;1760691;81;27994;-63
2023/07/06 10:08:48;;;;;;;;;;;;;;;;;;1762114;81;25334;-63
2023/07/06 10:11:24;;;;;;;4.92;3.02;;;;;;;;;;1738729;82;25443;-64
2023/07/06 10:14:05;;;;;;;8.10;3.58;;;;;;;;;;1760162;81;25364;-63
2023/07/06 10:16:42;;;;;;;4.35;2.92;;;;;;;;;;1760243;81;25531;-63
2023/07/06 10:19:14;;;;;;;4.78;3.40;;;;;;;;;;1762836;80;28076;-65
2023/07/06 10:21:51;;;;;;;4.12;3.27;;;;;;;;;;1775739;80;25865;-64
2023/07/06 10:24:38;;;;;;;3.27;2.98;;;;;;;;;;1773929;80;25301;-64
2023/07/06 10:27:13;;;;;;;3.40;2.62;;;;;;;;;;1776484;80;34884;-65
2023/07/06 10:29:47;;;;;;;5.53;3.17;;;;;;;;;;1775852;80;25344;-64
2023/07/06 10:32:26;;;;;;;4.83;2.45;;;;;;;;;;1776390;80;27492;-64
2023/07/06 10:35:15;;;;;;;10.23;3.20;;;;;;;;;;1776388;80;25445;-66
2023/07/06 10:37:43;;;;;;;3.67;2.80;;;;;;;;;;1776300;80;25447;-64
2023/07/06 10:40:24;;;;;;;6.80;3.00;;;;;;;;;;1776580;80;25361;-64
2023/07/06 10:43:11;;;;;;;7.17;4.50;;;;;;;;;;1779220;80;25495;-64
2023/07/06 10:45:46;;;;;;;3.97;2.97;;;;;;;;;;1778877;80;27554;-67
2023/07/06 10:48:30;;;;;;;7.92;3.47;;;;;;;;;;1779405;80;25382;-67
2023/07/06 10:51:07;;;;;;;12.33;3.87;;;;;;;;;;1779952;80;25333;-62
2023/07/06 10:53:39;;;;;;;7.22;3.50;;;;;;;;;;1779390;80;25558;-63
2023/07/06 10:56:13;;;;;;;9.48;3.58;;;;;;;;;;1778688;80;25455;-64
2023/07/06 10:58:50;;;;;;;4.12;3.40;;;;;;;;;;1778575;80;27981;-63
2023/07/06 11:01:19;;;;;;;7.12;3.50;;;;;;;;;;1777606;80;25833;-63
2023/07/06 11:03:47;;;;;;;7.83;3.50;;;;;;;;;;1778616;80;25502;-64
2023/07/06 11:06:33;;;;;;;4.80;3.67;;;;;;;;;;1778678;80;25928;-64
2023/07/06 11:09:14;;;;;;;4.22;3.33;;;;;;;;;;1745809;82;25432;-64
2023/07/06 11:11:51;;;;;;;4.95;3.62;;;;;;;;;;1745910;82;27458;-64
2023/07/06 11:14:37;;;;;;;7.95;3.87;;;;;;;;;;1745640;82;26067;-65
2023/07/06 11:17:13;;;;;;;8.18;3.65;;;;;;;;;;1745691;82;25503;-65
2023/07/06 11:19:55;;;;;;;7.12;3.58;;;;;;;;;;1745820;82;25481;-75
2023/07/06 11:22:24;;;;;;;6.50;3.35;;;;;;;;;;1745766;82;25471;-73
2023/07/06 11:24:55;;;;;;;7.75;3.30;;;;;;;;;;1745663;82;27981;-72
2023/07/06 11:27:30;;;;;;;4.17;3.10;;;;;;;;;;1744983;82;25715;-72
2023/07/06 11:30:15;;;;;;;7.45;2.98;;;;;;;;;;1745713;82;25611;-69
2023/07/06 11:32:46;;;;;;;4.40;3.05;;;;;;;;;;1745696;82;25698;-74
2023/07/06 11:35:18;;;;;;;3.58;2.77;;;;;;;;;;1745774;82;25417;-73
2023/07/06 11:37:54;;;;;;;4.28;2.90;;;;;;;;;;1745489;82;27398;-73
2023/07/06 11:40:24;;;;;;;4.72;3.17;;;;;;;;;;1744528;82;25449;-73
2023/07/06 11:43:04;;;;;;;4.83;2.80;;;;;;;;;;1687754;83;25674;-73
2023/07/06 11:45:55;;;;;;;7.35;2.98;;;;;;;;;;1710939;83;25509;-72
2023/07/06 11:48:29;;;;;;;4.95;2.87;;;;;;;;;;1711342;83;25421;-73
2023/07/06 11:50:56;;;;;;;42.50;38.00;;;;;;;;;;1705487;83;27555;-71
2023/07/06 11:53:54;;;;;;;4.33;3.20;;;;;;;;;;1711180;83;25416;-68
2023/07/06 11:56:18;;;;;;;5.35;3.00;;;;;;;;;;1707009;83;25541;-69
2023/07/06 11:58:53;;;;;;;6.05;2.80;;;;;;;;;;1709111;83;25745;-69
2023/07/06 12:01:32;;;;;;;9.78;3.20;;;;;;;;;;1709551;83;25563;-69
2023/07/06 12:03:53;;;;;;;4.78;2.55;;;;;;;;;;1709300;83;27486;-69
2023/07/06 12:06:22;;;;;;;17.32;11.15;;;;;;;;;;1710824;83;27186;-71
2023/07/06 12:08:50;;;;;;;;;;;;;;;;;;1713804;83;25503;-71
2023/07/06 12:11:22;;;;;;;8.38;4.55;;;;;;;;;;1711322;83;25564;-70
2023/07/06 12:13:52;;;;;;;6.03;2.90;;;;;;;;;;1711297;83;25520;-67
2023/07/06 12:16:24;;;;;;;5.17;2.72;;;;;;;;;;1711240;83;27384;-68
2023/07/06 12:19:03;;;;;;;5.92;2.67;;;;;;;;;;1711209;83;26116;-69
2023/07/06 12:21:33;;;;;;;4.65;2.45;;;;;;;;;;1777267;80;25463;-66
2023/07/06 12:24:06;;;;;;;4.47;2.50;;;;;;;;;;1778434;80;25590;-68
2023/07/06 12:26:37;;;;;;;5.03;3.15;;;;;;;;;;1778516;80;25279;-70
2023/07/06 12:29:05;;;;;;;7.15;3.17;;;;;;;;;;1777457;80;27493;-69
2023/07/06 12:31:34;;;;;;;6.37;3.35;;;;;;;;;;1778427;80;25330;-70